sensor_id;sensor_type;location;lat;lon;timestamp;temperature;humidity
51914;DHT22;37940;53.002;6.930;2023-03-08T00:01:12;-2.10;99.90
51914;DHT22;37940;53.002;6.930;2023-03-08T00:03:39;-2.10;99.90
51914;DHT22;37940;53.002;6.930;2023-03-08T00:06:11;-2.10;99.90
51914;DHT22;37940;53.002;6.930;2023-03-08T00:08:37;-2.10;99.90
51914;DHT22;37940;53.002;6.930;2023-03-08T00:11:07;-1.40;99.90
51914;DHT22;37940;53.002;6.930;2023-03-08T00:13:34;-2.00;99.90
51914;DHT22;37940;53.002;6.930;2023-03-08T00:16:00;-2.00;99.90
51914;DHT22;37940;53.002;6.930;2023-03-08T00:18:26;-2.00;99.90
51914;DHT22;37940;53.002;6.930;2023-03-08T00:21:05;-2.00;99.90
51914;DHT22;37940;53.002;6.930;2023-03-08T00:23:31;-2.00;99.90
51914;DHT22;37940;53.002;6.930;2023-03-08T00:25:56;-2.00;99.90
51914;DHT22;37940;53.002;6.930;2023-03-08T00:28:22;-2.00;99.90
51914;DHT22;37940;53.002;6.930;2023-03-08T00:30:59;-2.00;99.90
51914;DHT22;37940;53.002;6.930;2023-03-08T00:33:26;-2.00;99.90
51914;DHT22;37940;53.002;6.930;2023-03-08T00:36:00;-2.00;99.90
51914;DHT22;37940;53.002;6.930;2023-03-08T00:38:27;-2.00;99.90
51914;DHT22;37940;53.002;6.930;2023-03-08T00:40:52;-2.00;99.90
51914;DHT22;37940;53.002;6.930;2023-03-08T00:43:19;-2.00;99.90
51914;DHT22;37940;53.002;6.930;2023-03-08T00:45:45;-2.00;99.90
51914;DHT22;37940;53.002;6.930;2023-03-08T00:48:11;-2.00;99.90
51914;DHT22;37940;53.002;6.930;2023-03-08T00:50:37;-2.00;99.90
51914;DHT22;37940;53.002;6.930;2023-03-08T00:53:02;-2.10;99.90
51914;DHT22;37940;53.002;6.930;2023-03-08T00:55:28;-2.10;99.90
51914;DHT22;37940;53.002;6.930;2023-03-08T00:57:54;-2.10;99.90
51914;DHT22;37940;53.002;6.930;2023-03-08T01:00:20;-2.00;99.90
51914;DHT22;37940;53.002;6.930;2023-03-08T01:02:45;-2.00;99.90
51914;DHT22;37940;53.002;6.930;2023-03-08T01:05:11;-2.10;99.90
51914;DHT22;37940;53.002;6.930;2023-03-08T01:07:38;-2.10;99.90
51914;DHT22;37940;53.002;6.930;2023-03-08T01:10:04;-1.40;99.90
51914;DHT22;37940;53.002;6.930;2023-03-08T01:12:34;-2.00;99.90
51914;DHT22;37940;53.002;6.930;2023-03-08T01:15:00;-2.00;99.90
51914;DHT22;37940;53.002;6.930;2023-03-08T01:17:26;-2.10;99.90
51914;DHT22;37940;53.002;6.930;2023-03-08T01:19:52;-0.90;99.90
51914;DHT22;37940;53.002;6.930;2023-03-08T01:22:17;-2.10;99.90
51914;DHT22;37940;53.002;6.930;2023-03-08T01:24:47;-2.10;99.90
51914;DHT22;37940;53.002;6.930;2023-03-08T01:27:13;-2.10;99.90
51914;DHT22;37940;53.002;6.930;2023-03-08T01:29:59;-1.10;99.90
51914;DHT22;37940;53.002;6.930;2023-03-08T01:32:30;-2.20;99.90
51914;DHT22;37940;53.002;6.930;2023-03-08T01:34:56;-2.10;99.90
51914;DHT22;37940;53.002;6.930;2023-03-08T01:37:26;-2.10;99.90
51914;DHT22;37940;53.002;6.930;2023-03-08T01:40:14;-2.10;99.90
51914;DHT22;37940;53.002;6.930;2023-03-08T01:42:40;-2.10;99.90
51914;DHT22;37940;53.002;6.930;2023-03-08T01:48:11;-2.20;99.90
51914;DHT22;37940;53.002;6.930;2023-03-08T01:50:38;-2.10;99.90
51914;DHT22;37940;53.002;6.930;2023-03-08T01:53:04;-2.20;99.90
51914;DHT22;37940;53.002;6.930;2023-03-08T01:55:30;-2.20;99.90
51914;DHT22;37940;53.002;6.930;2023-03-08T01:57:56;-2.10;99.90
51914;DHT22;37940;53.002;6.930;2023-03-08T02:00:23;-2.20;99.90
51914;DHT22;37940;53.002;6.930;2023-03-08T02:03:03;-2.20;99.90
51914;DHT22;37940;53.002;6.930;2023-03-08T02:05:30;-2.20;99.90
51914;DHT22;37940;53.002;6.930;2023-03-08T02:07:57;-2.20;99.90
51914;DHT22;37940;53.002;6.930;2023-03-08T02:10:23;-2.20;99.90
51914;DHT22;37940;53.002;6.930;2023-03-08T02:12:48;-1.80;99.90
51914;DHT22;37940;53.002;6.930;2023-03-08T02:15:17;-2.30;99.90
51914;DHT22;37940;53.002;6.930;2023-03-08T02:17:43;-2.30;99.90
51914;DHT22;37940;53.002;6.930;2023-03-08T02:22:42;-2.30;99.90
51914;DHT22;37940;53.002;6.930;2023-03-08T02:25:25;-2.40;99.90
51914;DHT22;37940;53.002;6.930;2023-03-08T02:27:52;-2.40;99.90
51914;DHT22;37940;53.002;6.930;2023-03-08T02:30:24;-2.40;99.90
51914;DHT22;37940;53.002;6.930;2023-03-08T02:32:50;-2.40;99.90
51914;DHT22;37940;53.002;6.930;2023-03-08T02:35:16;-2.40;99.90
51914;DHT22;37940;53.002;6.930;2023-03-08T02:37:42;-2.40;99.90
51914;DHT22;37940;53.002;6.930;2023-03-08T02:40:08;-2.40;99.90
51914;DHT22;37940;53.002;6.930;2023-03-08T02:42:35;-2.40;99.90
51914;DHT22;37940;53.002;6.930;2023-03-08T02:45:01;-2.40;99.90
51914;DHT22;37940;53.002;6.930;2023-03-08T02:47:27;-2.40;99.90
51914;DHT22;37940;53.002;6.930;2023-03-08T02:49:53;-2.40;99.90
51914;DHT22;37940;53.002;6.930;2023-03-08T02:52:19;-2.20;99.90
51914;DHT22;37940;53.002;6.930;2023-03-08T02:54:45;-2.50;99.90
51914;DHT22;37940;53.002;6.930;2023-03-08T02:57:11;-2.40;99.90
51914;DHT22;37940;53.002;6.930;2023-03-08T02:59:37;-2.50;99.90
51914;DHT22;37940;53.002;6.930;2023-03-08T03:02:03;-1.10;99.90
51914;DHT22;37940;53.002;6.930;2023-03-08T03:04:29;-2.50;99.90
51914;DHT22;37940;53.002;6.930;2023-03-08T03:06:56;-2.50;99.90
51914;DHT22;37940;53.002;6.930;2023-03-08T03:09:22;-2.50;99.90
51914;DHT22;37940;53.002;6.930;2023-03-08T03:11:47;-2.50;99.90
51914;DHT22;37940;53.002;6.930;2023-03-08T03:14:13;-2.50;99.90
51914;DHT22;37940;53.002;6.930;2023-03-08T03:16:39;-2.50;99.90
51914;DHT22;37940;53.002;6.930;2023-03-08T03:19:05;-2.50;99.90
51914;DHT22;37940;53.002;6.930;2023-03-08T03:21:30;-2.50;99.90
51914;DHT22;37940;53.002;6.930;2023-03-08T03:23:56;-2.50;99.90
51914;DHT22;37940;53.002;6.930;2023-03-08T03:26:23;-2.50;99.90
51914;DHT22;37940;53.002;6.930;2023-03-08T03:28:49;-2.50;99.90
51914;DHT22;37940;53.002;6.930;2023-03-08T03:31:19;-2.50;99.90
51914;DHT22;37940;53.002;6.930;2023-03-08T03:33:46;-2.50;99.90
51914;DHT22;37940;53.002;6.930;2023-03-08T03:36:16;-2.50;99.90
51914;DHT22;37940;53.002;6.930;2023-03-08T03:38:42;-2.50;99.90
51914;DHT22;37940;53.002;6.930;2023-03-08T03:41:27;-2.50;99.90
51914;DHT22;37940;53.002;6.930;2023-03-08T03:43:52;-2.60;99.90
51914;DHT22;37940;53.002;6.930;2023-03-08T03:46:19;-2.60;99.90
51914;DHT22;37940;53.002;6.930;2023-03-08T03:48:46;-2.60;99.90
51914;DHT22;37940;53.002;6.930;2023-03-08T03:51:16;-2.10;99.90
51914;DHT22;37940;53.002;6.930;2023-03-08T03:53:42;-2.60;99.90
51914;DHT22;37940;53.002;6.930;2023-03-08T03:58:35;-2.60;99.90
51914;DHT22;37940;53.002;6.930;2023-03-08T04:03:37;-2.60;99.90
51914;DHT22;37940;53.002;6.930;2023-03-08T04:06:13;-1.70;99.90
51914;DHT22;37940;53.002;6.930;2023-03-08T04:08:39;-2.70;99.90
51914;DHT22;37940;53.002;6.930;2023-03-08T04:11:18;-2.70;99.90
51914;DHT22;37940;53.002;6.930;2023-03-08T04:13:44;-2.70;99.90
51914;DHT22;37940;53.002;6.930;2023-03-08T04:18:40;-2.80;99.90
51914;DHT22;37940;53.002;6.930;2023-03-08T04:21:06;-2.90;99.90
51914;DHT22;37940;53.002;6.930;2023-03-08T04:23:33;-2.90;99.90
51914;DHT22;37940;53.002;6.930;2023-03-08T04:25:59;-2.90;99.90
51914;DHT22;37940;53.002;6.930;2023-03-08T04:28:24;-2.90;99.90
51914;DHT22;37940;53.002;6.930;2023-03-08T04:30:50;-2.90;99.90
51914;DHT22;37940;53.002;6.930;2023-03-08T04:33:16;-2.60;99.90
51914;DHT22;37940;53.002;6.930;2023-03-08T04:35:42;-3.00;99.90
51914;DHT22;37940;53.002;6.930;2023-03-08T04:38:07;-3.00;99.90
51914;DHT22;37940;53.002;6.930;2023-03-08T04:40:33;-3.00;99.90
51914;DHT22;37940;53.002;6.930;2023-03-08T04:43:19;-3.00;99.90
51914;DHT22;37940;53.002;6.930;2023-03-08T04:45:45;-3.00;99.90
51914;DHT22;37940;53.002;6.930;2023-03-08T04:48:10;-2.30;99.90
51914;DHT22;37940;53.002;6.930;2023-03-08T04:50:36;-2.90;99.90
51914;DHT22;37940;53.002;6.930;2023-03-08T04:53:04;-2.90;99.90
51914;DHT22;37940;53.002;6.930;2023-03-08T04:55:29;-2.90;99.90
51914;DHT22;37940;53.002;6.930;2023-03-08T04:57:55;-2.90;99.90
51914;DHT22;37940;53.002;6.930;2023-03-08T05:00:21;-2.80;99.90
51914;DHT22;37940;53.002;6.930;2023-03-08T05:02:47;-2.80;99.90
51914;DHT22;37940;53.002;6.930;2023-03-08T05:05:13;-2.80;99.90
51914;DHT22;37940;53.002;6.930;2023-03-08T05:07:38;-2.80;99.90
51914;DHT22;37940;53.002;6.930;2023-03-08T05:10:04;-2.70;99.90
51914;DHT22;37940;53.002;6.930;2023-03-08T05:12:30;-2.70;99.90
51914;DHT22;37940;53.002;6.930;2023-03-08T05:14:56;-1.90;99.90
51914;DHT22;37940;53.002;6.930;2023-03-08T05:17:21;-2.70;99.90
51914;DHT22;37940;53.002;6.930;2023-03-08T05:19:47;-2.70;99.90
51914;DHT22;37940;53.002;6.930;2023-03-08T05:22:13;-2.70;99.90
51914;DHT22;37940;53.002;6.930;2023-03-08T05:24:39;-2.70;99.90
51914;DHT22;37940;53.002;6.930;2023-03-08T05:27:06;-2.70;99.90
51914;DHT22;37940;53.002;6.930;2023-03-08T05:29:33;-2.70;99.90
51914;DHT22;37940;53.002;6.930;2023-03-08T05:32:00;-2.70;99.90
51914;DHT22;37940;53.002;6.930;2023-03-08T05:34:27;-2.70;99.90
51914;DHT22;37940;53.002;6.930;2023-03-08T05:36:53;-2.70;99.90
51914;DHT22;37940;53.002;6.930;2023-03-08T05:39:19;-2.70;99.90
51914;DHT22;37940;53.002;6.930;2023-03-08T05:41:45;-2.80;99.90
51914;DHT22;37940;53.002;6.930;2023-03-08T05:44:11;-2.80;99.90
51914;DHT22;37940;53.002;6.930;2023-03-08T05:46:36;-2.80;99.90
51914;DHT22;37940;53.002;6.930;2023-03-08T05:49:05;-2.90;99.90
51914;DHT22;37940;53.002;6.930;2023-03-08T05:51:32;-2.90;99.90
51914;DHT22;37940;53.002;6.930;2023-03-08T05:53:58;-2.90;99.90
51914;DHT22;37940;53.002;6.930;2023-03-08T05:56:24;-2.40;99.90
51914;DHT22;37940;53.002;6.930;2023-03-08T05:58:50;-2.90;99.90
51914;DHT22;37940;53.002;6.930;2023-03-08T06:01:21;-2.90;99.90
51914;DHT22;37940;53.002;6.930;2023-03-08T06:03:49;-3.00;99.90
51914;DHT22;37940;53.002;6.930;2023-03-08T06:06:16;-3.00;99.90
51914;DHT22;37940;53.002;6.930;2023-03-08T06:08:42;-3.00;99.90
51914;DHT22;37940;53.002;6.930;2023-03-08T06:11:08;-3.00;99.90
51914;DHT22;37940;53.002;6.930;2023-03-08T06:13:34;-3.00;99.90
51914;DHT22;37940;53.002;6.930;2023-03-08T06:16:01;-3.00;99.90
51914;DHT22;37940;53.002;6.930;2023-03-08T06:18:27;-3.00;99.90
51914;DHT22;37940;53.002;6.930;2023-03-08T06:21:06;-3.00;99.90
51914;DHT22;37940;53.002;6.930;2023-03-08T06:23:33;-3.00;99.90
51914;DHT22;37940;53.002;6.930;2023-03-08T06:26:00;-1.90;99.90
51914;DHT22;37940;53.002;6.930;2023-03-08T06:28:27;-3.00;99.90
51914;DHT22;37940;53.002;6.930;2023-03-08T06:30:53;-2.60;99.90
51914;DHT22;37940;53.002;6.930;2023-03-08T06:33:25;-2.80;99.90
51914;DHT22;37940;53.002;6.930;2023-03-08T06:35:59;-2.90;99.90
51914;DHT22;37940;53.002;6.930;2023-03-08T06:38:26;-2.80;99.90
51914;DHT22;37940;53.002;6.930;2023-03-08T06:40:52;-2.80;99.90
51914;DHT22;37940;53.002;6.930;2023-03-08T06:43:18;-2.70;99.90
51914;DHT22;37940;53.002;6.930;2023-03-08T06:45:44;-2.30;99.90
51914;DHT22;37940;53.002;6.930;2023-03-08T06:48:10;-2.70;99.90
51914;DHT22;37940;53.002;6.930;2023-03-08T06:50:35;-2.60;99.90
51914;DHT22;37940;53.002;6.930;2023-03-08T06:53:01;-2.50;99.90
51914;DHT22;37940;53.002;6.930;2023-03-08T06:55:27;-1.90;99.90
51914;DHT22;37940;53.002;6.930;2023-03-08T06:57:53;-2.40;99.90
51914;DHT22;37940;53.002;6.930;2023-03-08T07:00:22;-1.30;99.90
51914;DHT22;37940;53.002;6.930;2023-03-08T07:02:48;-2.20;99.90
51914;DHT22;37940;53.002;6.930;2023-03-08T07:05:17;-1.90;99.90
51914;DHT22;37940;53.002;6.930;2023-03-08T07:07:43;-2.00;99.90
51914;DHT22;37940;53.002;6.930;2023-03-08T07:10:10;-1.90;99.90
51914;DHT22;37940;53.002;6.930;2023-03-08T07:12:36;-1.80;99.90
51914;DHT22;37940;53.002;6.930;2023-03-08T07:15:06;-1.60;99.90
51914;DHT22;37940;53.002;6.930;2023-03-08T07:17:32;-1.50;99.90
51914;DHT22;37940;53.002;6.930;2023-03-08T07:20:00;-1.30;99.90
51914;DHT22;37940;53.002;6.930;2023-03-08T07:22:25;-1.20;99.90
51914;DHT22;37940;53.002;6.930;2023-03-08T07:24:51;-1.10;99.90
51914;DHT22;37940;53.002;6.930;2023-03-08T07:27:17;-1.00;99.90
51914;DHT22;37940;53.002;6.930;2023-03-08T07:29:43;-0.90;99.90
51914;DHT22;37940;53.002;6.930;2023-03-08T07:32:08;0.10;99.90
51914;DHT22;37940;53.002;6.930;2023-03-08T07:34:34;-0.70;99.90
51914;DHT22;37940;53.002;6.930;2023-03-08T07:37:00;-0.60;99.90
51914;DHT22;37940;53.002;6.930;2023-03-08T07:39:25;-0.30;99.90
51914;DHT22;37940;53.002;6.930;2023-03-08T07:41:51;-0.50;99.90
51914;DHT22;37940;53.002;6.930;2023-03-08T07:44:17;-0.10;99.90
51914;DHT22;37940;53.002;6.930;2023-03-08T07:46:44;-0.40;99.90
51914;DHT22;37940;53.002;6.930;2023-03-08T07:49:10;-0.40;99.90
51914;DHT22;37940;53.002;6.930;2023-03-08T07:51:36;-0.40;99.90
51914;DHT22;37940;53.002;6.930;2023-03-08T07:54:02;-0.30;99.90
51914;DHT22;37940;53.002;6.930;2023-03-08T07:56:28;-0.30;99.90
51914;DHT22;37940;53.002;6.930;2023-03-08T07:58:57;0.20;99.90
51914;DHT22;37940;53.002;6.930;2023-03-08T08:01:23;0.30;99.90
51914;DHT22;37940;53.002;6.930;2023-03-08T08:03:49;-0.20;99.90
51914;DHT22;37940;53.002;6.930;2023-03-08T08:06:15;-0.20;99.90
51914;DHT22;37940;53.002;6.930;2023-03-08T08:08:41;-0.10;99.90
51914;DHT22;37940;53.002;6.930;2023-03-08T08:11:15;0.80;99.90
51914;DHT22;37940;53.002;6.930;2023-03-08T08:13:41;0.10;99.90
51914;DHT22;37940;53.002;6.930;2023-03-08T08:16:08;0.10;99.90
51914;DHT22;37940;53.002;6.930;2023-03-08T08:18:35;0.10;99.90
51914;DHT22;37940;53.002;6.930;2023-03-08T08:21:02;0.20;99.90
51914;DHT22;37940;53.002;6.930;2023-03-08T08:23:29;0.20;99.90
51914;DHT22;37940;53.002;6.930;2023-03-08T08:25:55;0.30;99.90
51914;DHT22;37940;53.002;6.930;2023-03-08T08:28:23;0.40;99.90
51914;DHT22;37940;53.002;6.930;2023-03-08T08:31:00;1.40;99.90
51914;DHT22;37940;53.002;6.930;2023-03-08T08:33:27;0.50;99.90
51914;DHT22;37940;53.002;6.930;2023-03-08T08:35:53;0.60;99.90
51914;DHT22;37940;53.002;6.930;2023-03-08T08:38:19;1.10;99.90
51914;DHT22;37940;53.002;6.930;2023-03-08T08:40:45;0.80;99.90
51914;DHT22;37940;53.002;6.930;2023-03-08T08:43:11;0.80;99.90
51914;DHT22;37940;53.002;6.930;2023-03-08T08:45:42;0.90;99.90
51914;DHT22;37940;53.002;6.930;2023-03-08T08:48:09;1.10;99.90
51914;DHT22;37940;53.002;6.930;2023-03-08T08:50:37;1.30;99.90
51914;DHT22;37940;53.002;6.930;2023-03-08T08:53:03;1.30;99.90
51914;DHT22;37940;53.002;6.930;2023-03-08T08:55:29;1.40;99.90
51914;DHT22;37940;53.002;6.930;2023-03-08T08:57:55;1.30;99.90
51914;DHT22;37940;53.002;6.930;2023-03-08T09:00:21;1.40;99.90
51914;DHT22;37940;53.002;6.930;2023-03-08T09:02:47;1.40;99.90
51914;DHT22;37940;53.002;6.930;2023-03-08T09:05:12;1.50;99.90
51914;DHT22;37940;53.002;6.930;2023-03-08T09:07:38;2.00;99.90
51914;DHT22;37940;53.002;6.930;2023-03-08T09:10:04;1.70;99.90
51914;DHT22;37940;53.002;6.930;2023-03-08T09:12:30;1.70;99.90
51914;DHT22;37940;53.002;6.930;2023-03-08T09:14:56;2.10;99.90
51914;DHT22;37940;53.002;6.930;2023-03-08T09:17:21;2.00;99.90
51914;DHT22;37940;53.002;6.930;2023-03-08T09:19:47;2.20;99.90
51914;DHT22;37940;53.002;6.930;2023-03-08T09:22:13;1.80;99.90
51914;DHT22;37940;53.002;6.930;2023-03-08T09:24:39;1.90;99.90
51914;DHT22;37940;53.002;6.930;2023-03-08T09:27:05;1.90;99.90
51914;DHT22;37940;53.002;6.930;2023-03-08T09:29:31;2.00;99.90
51914;DHT22;37940;53.002;6.930;2023-03-08T09:31:58;2.00;99.90
51914;DHT22;37940;53.002;6.930;2023-03-08T09:34:24;2.10;99.90
51914;DHT22;37940;53.002;6.930;2023-03-08T09:36:50;2.00;99.90
51914;DHT22;37940;53.002;6.930;2023-03-08T09:39:15;2.00;99.90
51914;DHT22;37940;53.002;6.930;2023-03-08T09:41:54;2.00;99.90
51914;DHT22;37940;53.002;6.930;2023-03-08T09:47:46;1.90;99.90
51914;DHT22;37940;53.002;6.930;2023-03-08T09:55:32;2.00;99.90
51914;DHT22;37940;53.002;6.930;2023-03-08T09:58:10;2.60;99.90
51914;DHT22;37940;53.002;6.930;2023-03-08T10:00:38;2.10;99.90
51914;DHT22;37940;53.002;6.930;2023-03-08T10:06:24;2.10;99.90
51914;DHT22;37940;53.002;6.930;2023-03-08T10:09:26;2.20;99.90
51914;DHT22;37940;53.002;6.930;2023-03-08T10:14:39;2.30;99.90
51914;DHT22;37940;53.002;6.930;2023-03-08T10:17:29;2.40;99.90
51914;DHT22;37940;53.002;6.930;2023-03-08T10:20:03;2.60;99.90
51914;DHT22;37940;53.002;6.930;2023-03-08T10:22:33;2.70;99.90
51914;DHT22;37940;53.002;6.930;2023-03-08T10:25:17;2.80;99.90
51914;DHT22;37940;53.002;6.930;2023-03-08T10:27:46;2.90;99.90
51914;DHT22;37940;53.002;6.930;2023-03-08T10:30:14;3.00;99.90
51914;DHT22;37940;53.002;6.930;2023-03-08T10:32:46;3.10;99.90
51914;DHT22;37940;53.002;6.930;2023-03-08T10:35:13;3.20;99.90
51914;DHT22;37940;53.002;6.930;2023-03-08T10:37:39;3.20;99.90
51914;DHT22;37940;53.002;6.930;2023-03-08T10:40:13;3.30;99.90
51914;DHT22;37940;53.002;6.930;2023-03-08T10:42:47;3.40;99.90
51914;DHT22;37940;53.002;6.930;2023-03-08T10:45:15;3.40;99.90
51914;DHT22;37940;53.002;6.930;2023-03-08T10:47:57;3.40;99.90
51914;DHT22;37940;53.002;6.930;2023-03-08T10:50:26;3.50;99.90
51914;DHT22;37940;53.002;6.930;2023-03-08T10:52:52;3.50;99.90
51914;DHT22;37940;53.002;6.930;2023-03-08T10:55:28;3.70;99.90
51914;DHT22;37940;53.002;6.930;2023-03-08T10:57:57;3.50;99.90
51914;DHT22;37940;53.002;6.930;2023-03-08T11:00:40;3.40;99.90
51914;DHT22;37940;53.002;6.930;2023-03-08T11:03:16;3.50;99.90
51914;DHT22;37940;53.002;6.930;2023-03-08T11:08:29;3.70;99.90
51914;DHT22;37940;53.002;6.930;2023-03-08T11:11:09;4.30;99.90
51914;DHT22;37940;53.002;6.930;2023-03-08T11:13:47;3.60;99.90
51914;DHT22;37940;53.002;6.930;2023-03-08T11:36:05;3.90;99.90
51914;DHT22;37940;53.002;6.930;2023-03-08T11:38:34;3.80;99.90
51914;DHT22;37940;53.002;6.930;2023-03-08T11:41:28;3.80;99.90
51914;DHT22;37940;53.002;6.930;2023-03-08T11:44:11;3.70;99.90
51914;DHT22;37940;53.002;6.930;2023-03-08T11:54:41;4.10;99.90
51914;DHT22;37940;53.002;6.930;2023-03-08T11:57:12;4.20;99.90
51914;DHT22;37940;53.002;6.930;2023-03-08T11:59:55;4.60;99.90
51914;DHT22;37940;53.002;6.930;2023-03-08T12:02:28;4.20;99.90
51914;DHT22;37940;53.002;6.930;2023-03-08T12:07:48;4.30;99.90
51914;DHT22;37940;53.002;6.930;2023-03-08T12:18:22;4.40;99.90
51914;DHT22;37940;53.002;6.930;2023-03-08T12:20:53;4.20;99.90
51914;DHT22;37940;53.002;6.930;2023-03-08T12:26:47;4.20;99.90
51914;DHT22;37940;53.002;6.930;2023-03-08T12:29:22;4.30;99.90
51914;DHT22;37940;53.002;6.930;2023-03-08T12:31:50;4.30;99.90
51914;DHT22;37940;53.002;6.930;2023-03-08T12:34:40;4.30;99.90
51914;DHT22;37940;53.002;6.930;2023-03-08T12:37:24;4.30;99.90
51914;DHT22;37940;53.002;6.930;2023-03-08T12:40:03;4.30;99.90
51914;DHT22;37940;53.002;6.930;2023-03-08T12:42:32;4.20;99.90
51914;DHT22;37940;53.002;6.930;2023-03-08T12:45:26;4.20;99.90
51914;DHT22;37940;53.002;6.930;2023-03-08T12:56:47;4.50;99.90
51914;DHT22;37940;53.002;6.930;2023-03-08T13:01:43;4.60;99.90
51914;DHT22;37940;53.002;6.930;2023-03-08T13:04:32;4.60;99.90
51914;DHT22;37940;53.002;6.930;2023-03-08T13:10:22;4.50;99.90
51914;DHT22;37940;53.002;6.930;2023-03-08T13:15:33;4.40;99.90
51914;DHT22;37940;53.002;6.930;2023-03-08T13:18:13;4.40;99.90
51914;DHT22;37940;53.002;6.930;2023-03-08T13:28:35;4.30;99.90
51914;DHT22;37940;53.002;6.930;2023-03-08T13:31:19;4.20;99.90
51914;DHT22;37940;53.002;6.930;2023-03-08T13:33:49;4.10;99.90
51914;DHT22;37940;53.002;6.930;2023-03-08T13:36:24;4.20;99.90
51914;DHT22;37940;53.002;6.930;2023-03-08T13:39:00;4.20;99.90
51914;DHT22;37940;53.002;6.930;2023-03-08T13:41:41;4.50;99.90
51914;DHT22;37940;53.002;6.930;2023-03-08T13:46:39;4.10;99.90
51914;DHT22;37940;53.002;6.930;2023-03-08T13:49:33;4.00;99.90
51914;DHT22;37940;53.002;6.930;2023-03-08T13:52:02;4.00;99.90
51914;DHT22;37940;53.002;6.930;2023-03-08T13:54:34;4.30;99.90
51914;DHT22;37940;53.002;6.930;2023-03-08T13:57:03;3.90;99.90
51914;DHT22;37940;53.002;6.930;2023-03-08T13:59:30;4.00;99.90
51914;DHT22;37940;53.002;6.930;2023-03-08T14:01:56;3.90;99.90
51914;DHT22;37940;53.002;6.930;2023-03-08T14:04:28;4.00;99.90
51914;DHT22;37940;53.002;6.930;2023-03-08T14:06:58;4.00;99.90
51914;DHT22;37940;53.002;6.930;2023-03-08T14:09:25;4.00;99.90
51914;DHT22;37940;53.002;6.930;2023-03-08T14:12:01;4.10;99.90
51914;DHT22;37940;53.002;6.930;2023-03-08T14:14:39;4.00;99.90
51914;DHT22;37940;53.002;6.930;2023-03-08T14:17:24;3.90;99.90
51914;DHT22;37940;53.002;6.930;2023-03-08T14:20:01;4.00;99.90
51914;DHT22;37940;53.002;6.930;2023-03-08T14:22:30;4.00;99.90
51914;DHT22;37940;53.002;6.930;2023-03-08T14:24:59;4.00;99.90
51914;DHT22;37940;53.002;6.930;2023-03-08T14:27:36;4.10;99.90
51914;DHT22;37940;53.002;6.930;2023-03-08T14:30:29;4.10;99.90
51914;DHT22;37940;53.002;6.930;2023-03-08T14:35:27;4.10;99.90
51914;DHT22;37940;53.002;6.930;2023-03-08T14:37:53;4.50;99.90
51914;DHT22;37940;53.002;6.930;2023-03-08T14:40:29;4.10;99.90
51914;DHT22;37940;53.002;6.930;2023-03-08T14:42:58;4.10;99.90
51914;DHT22;37940;53.002;6.930;2023-03-08T14:45:36;4.50;99.90
51914;DHT22;37940;53.002;6.930;2023-03-08T14:53:42;4.00;99.90
51914;DHT22;37940;53.002;6.930;2023-03-08T14:56:15;4.10;99.90
51914;DHT22;37940;53.002;6.930;2023-03-08T14:58:46;4.10;99.90
51914;DHT22;37940;53.002;6.930;2023-03-08T15:01:33;4.20;99.90
51914;DHT22;37940;53.002;6.930;2023-03-08T15:04:00;4.10;99.90
51914;DHT22;37940;53.002;6.930;2023-03-08T15:06:31;4.20;99.90
51914;DHT22;37940;53.002;6.930;2023-03-08T15:08:58;4.10;99.90
51914;DHT22;37940;53.002;6.930;2023-03-08T15:11:26;4.10;99.90
51914;DHT22;37940;53.002;6.930;2023-03-08T15:13:57;4.60;99.90
51914;DHT22;37940;53.002;6.930;2023-03-08T15:16:23;4.20;99.90
51914;DHT22;37940;53.002;6.930;2023-03-08T15:18:48;3.90;99.90
51914;DHT22;37940;53.002;6.930;2023-03-08T15:21:20;4.60;99.90
51914;DHT22;37940;53.002;6.930;2023-03-08T15:23:46;3.90;99.90
51914;DHT22;37940;53.002;6.930;2023-03-08T15:26:17;3.80;99.90
51914;DHT22;37940;53.002;6.930;2023-03-08T15:28:46;3.80;99.90
51914;DHT22;37940;53.002;6.930;2023-03-08T15:31:11;3.70;99.90
51914;DHT22;37940;53.002;6.930;2023-03-08T15:33:37;3.70;99.90
51914;DHT22;37940;53.002;6.930;2023-03-08T15:36:03;3.70;99.90
51914;DHT22;37940;53.002;6.930;2023-03-08T15:38:29;3.60;99.90
51914;DHT22;37940;53.002;6.930;2023-03-08T15:40:55;3.60;99.90
51914;DHT22;37940;53.002;6.930;2023-03-08T15:43:21;3.50;99.90
51914;DHT22;37940;53.002;6.930;2023-03-08T15:45:47;3.50;99.90
51914;DHT22;37940;53.002;6.930;2023-03-08T15:48:16;3.60;99.90
51914;DHT22;37940;53.002;6.930;2023-03-08T15:50:42;3.50;99.90
51914;DHT22;37940;53.002;6.930;2023-03-08T15:53:09;3.60;99.90
51914;DHT22;37940;53.002;6.930;2023-03-08T15:55:37;3.50;99.90
51914;DHT22;37940;53.002;6.930;2023-03-08T15:58:03;3.50;99.90
51914;DHT22;37940;53.002;6.930;2023-03-08T16:00:29;3.50;99.90
51914;DHT22;37940;53.002;6.930;2023-03-08T16:02:55;3.50;99.90
51914;DHT22;37940;53.002;6.930;2023-03-08T16:05:22;3.40;99.90
51914;DHT22;37940;53.002;6.930;2023-03-08T16:07:54;3.40;99.90
51914;DHT22;37940;53.002;6.930;2023-03-08T16:10:20;3.80;99.90
51914;DHT22;37940;53.002;6.930;2023-03-08T16:12:47;3.40;99.90
51914;DHT22;37940;53.002;6.930;2023-03-08T16:15:13;4.10;99.90
51914;DHT22;37940;53.002;6.930;2023-03-08T16:17:39;3.30;99.90
51914;DHT22;37940;53.002;6.930;2023-03-08T16:20:05;3.30;99.90
51914;DHT22;37940;53.002;6.930;2023-03-08T16:22:32;3.30;99.90
51914;DHT22;37940;53.002;6.930;2023-03-08T16:24:58;3.80;99.90
51914;DHT22;37940;53.002;6.930;2023-03-08T16:27:24;3.20;99.90
51914;DHT22;37940;53.002;6.930;2023-03-08T16:29:50;3.20;99.90
51914;DHT22;37940;53.002;6.930;2023-03-08T16:32:17;3.10;99.90
51914;DHT22;37940;53.002;6.930;2023-03-08T16:34:43;3.10;99.90
51914;DHT22;37940;53.002;6.930;2023-03-08T16:37:18;3.10;99.90
51914;DHT22;37940;53.002;6.930;2023-03-08T16:39:44;3.00;99.90
51914;DHT22;37940;53.002;6.930;2023-03-08T16:42:12;3.00;99.90
51914;DHT22;37940;53.002;6.930;2023-03-08T16:44:38;3.00;99.90
51914;DHT22;37940;53.002;6.930;2023-03-08T16:47:04;3.20;99.90
51914;DHT22;37940;53.002;6.930;2023-03-08T16:49:30;3.00;99.90
51914;DHT22;37940;53.002;6.930;2023-03-08T16:51:56;2.90;99.90
51914;DHT22;37940;53.002;6.930;2023-03-08T16:54:22;3.50;99.90
51914;DHT22;37940;53.002;6.930;2023-03-08T16:56:48;2.90;99.90
51914;DHT22;37940;53.002;6.930;2023-03-08T16:59:15;3.10;99.90
51914;DHT22;37940;53.002;6.930;2023-03-08T17:01:42;2.80;99.90
51914;DHT22;37940;53.002;6.930;2023-03-08T17:04:12;2.80;99.90
51914;DHT22;37940;53.002;6.930;2023-03-08T17:06:40;2.70;99.90
51914;DHT22;37940;53.002;6.930;2023-03-08T17:09:07;2.70;99.90
51914;DHT22;37940;53.002;6.930;2023-03-08T17:11:33;2.60;99.90
51914;DHT22;37940;53.002;6.930;2023-03-08T17:14:08;3.20;99.90
51914;DHT22;37940;53.002;6.930;2023-03-08T17:16:36;2.60;99.90
51914;DHT22;37940;53.002;6.930;2023-03-08T17:19:04;2.60;99.90
51914;DHT22;37940;53.002;6.930;2023-03-08T17:21:30;2.50;99.90
51914;DHT22;37940;53.002;6.930;2023-03-08T17:23:57;2.50;99.90
51914;DHT22;37940;53.002;6.930;2023-03-08T17:26:24;2.40;99.90
51914;DHT22;37940;53.002;6.930;2023-03-08T17:28:51;2.40;99.90
51914;DHT22;37940;53.002;6.930;2023-03-08T17:31:19;2.40;99.90
51914;DHT22;37940;53.002;6.930;2023-03-08T17:33:45;2.30;99.90
51914;DHT22;37940;53.002;6.930;2023-03-08T17:36:12;2.40;99.90